aviador You're here:

YSTW Decoded Metar

TAMWORTH in AUSTRALIA
Report Time2017-09-24 22:30:00
UTC Time2017-09-24 23:01:14
Flight Rules vfr VFR
Wind350° at 10 kt
W.Decomp.*RWY 36: 9.3 kt HW 3.6 kt LCW
RWY 30: 7.8 kt HW 6.3 kt RCW
RWY 06: 1.6 kt HW 9.9 kt LCW
W.Rank350° ranks 9
Current wind is above 350° avg. (8.2)
Visibility9999 m
Phenomena:N/A
Clouds:Scattered 125 Hf
Expected CloudBase > 6,800 ft AGL from Temp-Dew spread
CeilingNone
Temp22°C (ISA +10)
Dew Point05°C (33% RH)
AAT17.3°C
QNH1012 hPa
Density Alt2,625 ft
Elevation1,345 ft
Report Wrong Elevation
Raw Report
YSTW 242230Z AUTO 35010KT 9999 // SCT125 22/05 Q1012
RF00.0/000.0=

Extra information for YSTW:More info

Metar Taf Metar & Taf Last 4 Metars F.Rules Stats Wind Profile Meteogram Temp Stats Airport Information Weather charts Add Link Nearby VenuesMetar ALERT Operation Metar Decoded Social comments